sensor_id;sensor_type;location;lat;lon;timestamp;temperature;humidity
15906;DHT22;8051;50.820;4.884;2022-08-19T00:01:18;18.50;99.90
15906;DHT22;8051;50.820;4.884;2022-08-19T00:03:45;18.50;99.90
15906;DHT22;8051;50.820;4.884;2022-08-19T00:06:12;18.50;99.90
15906;DHT22;8051;50.820;4.884;2022-08-19T00:08:41;18.50;99.90
15906;DHT22;8051;50.820;4.884;2022-08-19T00:11:09;18.40;99.90
15906;DHT22;8051;50.820;4.884;2022-08-19T00:13:36;18.40;99.90
15906;DHT22;8051;50.820;4.884;2022-08-19T00:16:03;18.40;99.90
15906;DHT22;8051;50.820;4.884;2022-08-19T00:18:31;18.30;99.90
15906;DHT22;8051;50.820;4.884;2022-08-19T00:20:58;18.30;99.90
15906;DHT22;8051;50.820;4.884;2022-08-19T00:23:26;18.30;99.90
15906;DHT22;8051;50.820;4.884;2022-08-19T00:25:55;18.30;99.90
15906;DHT22;8051;50.820;4.884;2022-08-19T00:28:22;18.30;99.90
15906;DHT22;8051;50.820;4.884;2022-08-19T00:30:49;18.30;99.90
15906;DHT22;8051;50.820;4.884;2022-08-19T00:33:17;18.10;99.90
15906;DHT22;8051;50.820;4.884;2022-08-19T00:35:44;18.00;99.90
15906;DHT22;8051;50.820;4.884;2022-08-19T00:38:11;17.90;99.90
15906;DHT22;8051;50.820;4.884;2022-08-19T00:40:38;17.80;99.90
15906;DHT22;8051;50.820;4.884;2022-08-19T00:43:10;17.70;99.90
15906;DHT22;8051;50.820;4.884;2022-08-19T00:45:40;17.70;99.90
15906;DHT22;8051;50.820;4.884;2022-08-19T00:48:09;17.60;99.90
15906;DHT22;8051;50.820;4.884;2022-08-19T00:50:39;17.60;99.90
15906;DHT22;8051;50.820;4.884;2022-08-19T00:53:10;17.60;99.90
15906;DHT22;8051;50.820;4.884;2022-08-19T00:55:38;17.60;99.90
15906;DHT22;8051;50.820;4.884;2022-08-19T00:58:07;17.60;99.90
15906;DHT22;8051;50.820;4.884;2022-08-19T01:00:38;17.60;99.90
15906;DHT22;8051;50.820;4.884;2022-08-19T01:03:07;17.60;99.90
15906;DHT22;8051;50.820;4.884;2022-08-19T01:05:35;17.60;99.90
15906;DHT22;8051;50.820;4.884;2022-08-19T01:08:05;17.70;99.90
15906;DHT22;8051;50.820;4.884;2022-08-19T01:10:36;17.70;99.90
15906;DHT22;8051;50.820;4.884;2022-08-19T01:13:04;17.70;99.90
15906;DHT22;8051;50.820;4.884;2022-08-19T01:15:33;17.70;99.90
15906;DHT22;8051;50.820;4.884;2022-08-19T01:18:09;17.70;99.90
15906;DHT22;8051;50.820;4.884;2022-08-19T01:20:36;17.70;99.90
15906;DHT22;8051;50.820;4.884;2022-08-19T01:23:05;17.70;99.90
15906;DHT22;8051;50.820;4.884;2022-08-19T01:25:36;17.80;99.90
15906;DHT22;8051;50.820;4.884;2022-08-19T01:28:07;17.70;99.90
15906;DHT22;8051;50.820;4.884;2022-08-19T01:30:35;17.70;99.90
15906;DHT22;8051;50.820;4.884;2022-08-19T01:33:02;17.60;99.90
15906;DHT22;8051;50.820;4.884;2022-08-19T01:35:31;17.60;99.90
15906;DHT22;8051;50.820;4.884;2022-08-19T01:38:02;17.60;99.90
15906;DHT22;8051;50.820;4.884;2022-08-19T01:40:37;17.60;99.90
15906;DHT22;8051;50.820;4.884;2022-08-19T01:43:06;17.50;99.90
15906;DHT22;8051;50.820;4.884;2022-08-19T01:45:34;17.50;99.90
15906;DHT22;8051;50.820;4.884;2022-08-19T01:48:02;17.50;99.90
15906;DHT22;8051;50.820;4.884;2022-08-19T01:50:30;17.40;99.90
15906;DHT22;8051;50.820;4.884;2022-08-19T01:52:57;17.40;99.90
15906;DHT22;8051;50.820;4.884;2022-08-19T01:55:25;17.40;99.90
15906;DHT22;8051;50.820;4.884;2022-08-19T01:57:55;17.40;99.90
15906;DHT22;8051;50.820;4.884;2022-08-19T02:00:27;17.30;99.90
15906;DHT22;8051;50.820;4.884;2022-08-19T02:02:54;17.30;99.90
15906;DHT22;8051;50.820;4.884;2022-08-19T02:05:21;17.30;99.90
15906;DHT22;8051;50.820;4.884;2022-08-19T02:07:48;17.30;99.90
15906;DHT22;8051;50.820;4.884;2022-08-19T02:10:20;17.30;99.90
15906;DHT22;8051;50.820;4.884;2022-08-19T02:12:48;17.20;99.90
15906;DHT22;8051;50.820;4.884;2022-08-19T02:15:17;17.20;99.90
15906;DHT22;8051;50.820;4.884;2022-08-19T02:17:45;17.10;99.90
15906;DHT22;8051;50.820;4.884;2022-08-19T02:20:13;17.10;99.90
15906;DHT22;8051;50.820;4.884;2022-08-19T02:22:40;17.10;99.90
15906;DHT22;8051;50.820;4.884;2022-08-19T02:25:08;17.10;99.90
15906;DHT22;8051;50.820;4.884;2022-08-19T02:27:35;17.10;99.90
15906;DHT22;8051;50.820;4.884;2022-08-19T02:30:04;17.10;99.90
15906;DHT22;8051;50.820;4.884;2022-08-19T02:32:33;17.10;99.90
15906;DHT22;8051;50.820;4.884;2022-08-19T02:35:00;17.10;99.90
15906;DHT22;8051;50.820;4.884;2022-08-19T02:37:27;17.20;99.90
15906;DHT22;8051;50.820;4.884;2022-08-19T02:40:11;17.10;99.90
15906;DHT22;8051;50.820;4.884;2022-08-19T02:42:38;17.10;99.90
15906;DHT22;8051;50.820;4.884;2022-08-19T02:45:06;17.10;99.90
15906;DHT22;8051;50.820;4.884;2022-08-19T02:47:36;17.10;99.90
15906;DHT22;8051;50.820;4.884;2022-08-19T02:50:04;17.00;99.90
15906;DHT22;8051;50.820;4.884;2022-08-19T02:52:32;17.00;99.90
15906;DHT22;8051;50.820;4.884;2022-08-19T02:55:00;17.00;99.90
15906;DHT22;8051;50.820;4.884;2022-08-19T02:57:26;16.90;99.90
15906;DHT22;8051;50.820;4.884;2022-08-19T02:59:54;16.90;99.90
15906;DHT22;8051;50.820;4.884;2022-08-19T03:02:20;16.90;99.90
15906;DHT22;8051;50.820;4.884;2022-08-19T03:04:49;16.90;99.90
15906;DHT22;8051;50.820;4.884;2022-08-19T03:07:17;16.80;99.90
15906;DHT22;8051;50.820;4.884;2022-08-19T03:09:45;16.80;99.90
15906;DHT22;8051;50.820;4.884;2022-08-19T03:12:12;16.80;99.90
15906;DHT22;8051;50.820;4.884;2022-08-19T03:14:38;16.80;99.90
15906;DHT22;8051;50.820;4.884;2022-08-19T03:17:05;16.70;99.90
15906;DHT22;8051;50.820;4.884;2022-08-19T03:19:33;16.70;99.90
15906;DHT22;8051;50.820;4.884;2022-08-19T03:22:02;16.70;99.90
15906;DHT22;8051;50.820;4.884;2022-08-19T03:24:29;16.70;99.90
15906;DHT22;8051;50.820;4.884;2022-08-19T03:26:56;16.70;99.90
15906;DHT22;8051;50.820;4.884;2022-08-19T03:29:24;16.60;99.90
15906;DHT22;8051;50.820;4.884;2022-08-19T03:31:51;16.60;99.90
15906;DHT22;8051;50.820;4.884;2022-08-19T03:34:21;16.60;99.90
15906;DHT22;8051;50.820;4.884;2022-08-19T03:36:49;16.50;99.90
15906;DHT22;8051;50.820;4.884;2022-08-19T03:39:17;16.50;99.90
15906;DHT22;8051;50.820;4.884;2022-08-19T03:41:46;16.40;99.90
15906;DHT22;8051;50.820;4.884;2022-08-19T03:44:15;16.40;99.90
15906;DHT22;8051;50.820;4.884;2022-08-19T03:46:43;16.40;99.90
15906;DHT22;8051;50.820;4.884;2022-08-19T03:49:10;16.40;99.90
15906;DHT22;8051;50.820;4.884;2022-08-19T03:51:38;16.40;99.90
15906;DHT22;8051;50.820;4.884;2022-08-19T03:54:07;16.40;99.90
15906;DHT22;8051;50.820;4.884;2022-08-19T03:56:37;16.40;99.90
15906;DHT22;8051;50.820;4.884;2022-08-19T03:59:05;16.40;99.90
15906;DHT22;8051;50.820;4.884;2022-08-19T04:01:32;16.40;99.90
15906;DHT22;8051;50.820;4.884;2022-08-19T04:04:00;16.40;99.90
15906;DHT22;8051;50.820;4.884;2022-08-19T04:06:28;16.40;99.90
15906;DHT22;8051;50.820;4.884;2022-08-19T04:08:57;16.40;99.90
15906;DHT22;8051;50.820;4.884;2022-08-19T04:11:26;16.30;99.90
15906;DHT22;8051;50.820;4.884;2022-08-19T04:13:55;16.30;99.90
15906;DHT22;8051;50.820;4.884;2022-08-19T04:16:24;16.30;99.90
15906;DHT22;8051;50.820;4.884;2022-08-19T04:18:54;16.30;99.90
15906;DHT22;8051;50.820;4.884;2022-08-19T04:21:24;16.20;99.90
15906;DHT22;8051;50.820;4.884;2022-08-19T04:23:51;16.20;99.90
15906;DHT22;8051;50.820;4.884;2022-08-19T04:26:21;16.10;99.90
15906;DHT22;8051;50.820;4.884;2022-08-19T04:28:48;16.00;99.90
15906;DHT22;8051;50.820;4.884;2022-08-19T04:31:19;16.00;99.90
15906;DHT22;8051;50.820;4.884;2022-08-19T04:33:47;16.00;99.90
15906;DHT22;8051;50.820;4.884;2022-08-19T04:36:18;16.00;99.90
15906;DHT22;8051;50.820;4.884;2022-08-19T04:38:46;16.00;99.90
15906;DHT22;8051;50.820;4.884;2022-08-19T04:41:14;15.90;99.90
15906;DHT22;8051;50.820;4.884;2022-08-19T04:43:58;15.90;99.90
15906;DHT22;8051;50.820;4.884;2022-08-19T04:46:27;15.90;99.90
15906;DHT22;8051;50.820;4.884;2022-08-19T04:48:55;15.90;99.90
15906;DHT22;8051;50.820;4.884;2022-08-19T04:51:23;15.80;99.90
15906;DHT22;8051;50.820;4.884;2022-08-19T04:53:50;15.80;99.90
15906;DHT22;8051;50.820;4.884;2022-08-19T04:56:18;15.80;99.90
15906;DHT22;8051;50.820;4.884;2022-08-19T04:58:48;15.80;99.90
15906;DHT22;8051;50.820;4.884;2022-08-19T05:01:19;15.90;99.90
15906;DHT22;8051;50.820;4.884;2022-08-19T05:03:49;15.80;99.90
15906;DHT22;8051;50.820;4.884;2022-08-19T05:06:17;15.80;99.90
15906;DHT22;8051;50.820;4.884;2022-08-19T05:08:46;15.80;99.90
15906;DHT22;8051;50.820;4.884;2022-08-19T05:11:14;15.90;99.90
15906;DHT22;8051;50.820;4.884;2022-08-19T05:13:42;15.90;99.90
15906;DHT22;8051;50.820;4.884;2022-08-19T05:16:11;15.90;99.90
15906;DHT22;8051;50.820;4.884;2022-08-19T05:18:39;16.00;99.90
15906;DHT22;8051;50.820;4.884;2022-08-19T05:21:28;16.00;99.90
15906;DHT22;8051;50.820;4.884;2022-08-19T05:24:13;16.00;99.90
15906;DHT22;8051;50.820;4.884;2022-08-19T05:26:43;16.00;99.90
15906;DHT22;8051;50.820;4.884;2022-08-19T05:29:11;16.10;99.90
15906;DHT22;8051;50.820;4.884;2022-08-19T05:31:38;16.20;99.90
15906;DHT22;8051;50.820;4.884;2022-08-19T05:34:05;16.30;99.90
15906;DHT22;8051;50.820;4.884;2022-08-19T05:36:36;16.30;99.90
15906;DHT22;8051;50.820;4.884;2022-08-19T05:39:05;16.30;99.90
15906;DHT22;8051;50.820;4.884;2022-08-19T05:41:32;16.30;99.90
15906;DHT22;8051;50.820;4.884;2022-08-19T05:44:02;16.40;99.90
15906;DHT22;8051;50.820;4.884;2022-08-19T05:46:32;16.30;99.90
15906;DHT22;8051;50.820;4.884;2022-08-19T05:48:59;16.30;99.90
15906;DHT22;8051;50.820;4.884;2022-08-19T05:51:25;16.30;99.90
15906;DHT22;8051;50.820;4.884;2022-08-19T05:53:54;16.30;99.90
15906;DHT22;8051;50.820;4.884;2022-08-19T05:56:20;16.40;99.90
15906;DHT22;8051;50.820;4.884;2022-08-19T05:58:47;16.50;99.90
15906;DHT22;8051;50.820;4.884;2022-08-19T06:01:16;16.60;99.90
15906;DHT22;8051;50.820;4.884;2022-08-19T06:03:44;16.60;99.90
15906;DHT22;8051;50.820;4.884;2022-08-19T06:06:13;16.70;99.90
15906;DHT22;8051;50.820;4.884;2022-08-19T06:08:41;16.80;99.90
15906;DHT22;8051;50.820;4.884;2022-08-19T06:11:15;16.90;99.90
15906;DHT22;8051;50.820;4.884;2022-08-19T06:13:43;17.00;99.90
15906;DHT22;8051;50.820;4.884;2022-08-19T06:16:16;17.20;99.90
15906;DHT22;8051;50.820;4.884;2022-08-19T06:18:46;17.30;99.90
15906;DHT22;8051;50.820;4.884;2022-08-19T06:21:13;17.50;99.90
15906;DHT22;8051;50.820;4.884;2022-08-19T06:23:40;17.60;99.90
15906;DHT22;8051;50.820;4.884;2022-08-19T06:26:13;17.70;99.90
15906;DHT22;8051;50.820;4.884;2022-08-19T06:28:40;17.80;99.90
15906;DHT22;8051;50.820;4.884;2022-08-19T06:31:08;17.90;99.90
15906;DHT22;8051;50.820;4.884;2022-08-19T06:33:35;17.90;99.90
15906;DHT22;8051;50.820;4.884;2022-08-19T06:36:03;18.00;99.90
15906;DHT22;8051;50.820;4.884;2022-08-19T06:38:31;18.10;99.90
15906;DHT22;8051;50.820;4.884;2022-08-19T06:41:01;18.10;99.90
15906;DHT22;8051;50.820;4.884;2022-08-19T06:43:29;18.20;99.90
15906;DHT22;8051;50.820;4.884;2022-08-19T06:45:56;18.20;99.90
15906;DHT22;8051;50.820;4.884;2022-08-19T06:48:24;18.30;99.90
15906;DHT22;8051;50.820;4.884;2022-08-19T06:50:51;18.40;99.90
15906;DHT22;8051;50.820;4.884;2022-08-19T06:53:18;18.40;99.90
15906;DHT22;8051;50.820;4.884;2022-08-19T06:55:45;18.60;99.90
15906;DHT22;8051;50.820;4.884;2022-08-19T06:58:12;18.60;99.90
15906;DHT22;8051;50.820;4.884;2022-08-19T07:00:41;18.60;99.90
15906;DHT22;8051;50.820;4.884;2022-08-19T07:03:07;18.60;99.90
15906;DHT22;8051;50.820;4.884;2022-08-19T07:05:39;18.80;99.90
15906;DHT22;8051;50.820;4.884;2022-08-19T07:08:06;18.90;99.90
15906;DHT22;8051;50.820;4.884;2022-08-19T07:10:33;18.90;99.90
15906;DHT22;8051;50.820;4.884;2022-08-19T07:13:00;18.90;99.90
15906;DHT22;8051;50.820;4.884;2022-08-19T07:15:27;18.90;99.90
15906;DHT22;8051;50.820;4.884;2022-08-19T07:17:55;19.00;99.90
15906;DHT22;8051;50.820;4.884;2022-08-19T07:20:22;19.10;99.90
15906;DHT22;8051;50.820;4.884;2022-08-19T07:22:49;19.20;99.90
15906;DHT22;8051;50.820;4.884;2022-08-19T07:25:16;19.20;99.90
15906;DHT22;8051;50.820;4.884;2022-08-19T07:27:44;19.30;99.90
15906;DHT22;8051;50.820;4.884;2022-08-19T07:30:11;19.20;99.90
15906;DHT22;8051;50.820;4.884;2022-08-19T07:32:38;19.20;99.90
15906;DHT22;8051;50.820;4.884;2022-08-19T07:35:08;19.40;99.90
15906;DHT22;8051;50.820;4.884;2022-08-19T07:37:35;19.60;99.90
15906;DHT22;8051;50.820;4.884;2022-08-19T07:40:05;19.90;99.90
15906;DHT22;8051;50.820;4.884;2022-08-19T07:42:32;20.00;99.90
15906;DHT22;8051;50.820;4.884;2022-08-19T07:44:59;19.90;99.90
15906;DHT22;8051;50.820;4.884;2022-08-19T07:47:26;19.90;99.90
15906;DHT22;8051;50.820;4.884;2022-08-19T07:49:53;19.90;99.90
15906;DHT22;8051;50.820;4.884;2022-08-19T07:52:22;19.90;99.90
15906;DHT22;8051;50.820;4.884;2022-08-19T07:54:49;19.90;99.90
15906;DHT22;8051;50.820;4.884;2022-08-19T07:57:16;20.10;99.90
15906;DHT22;8051;50.820;4.884;2022-08-19T07:59:44;20.40;99.90
15906;DHT22;8051;50.820;4.884;2022-08-19T08:02:11;20.80;99.90
15906;DHT22;8051;50.820;4.884;2022-08-19T08:04:38;21.30;99.90
15906;DHT22;8051;50.820;4.884;2022-08-19T08:07:24;21.70;99.90
15906;DHT22;8051;50.820;4.884;2022-08-19T08:10:09;21.70;99.90
15906;DHT22;8051;50.820;4.884;2022-08-19T08:12:38;21.60;99.90
15906;DHT22;8051;50.820;4.884;2022-08-19T08:15:09;21.60;99.90
15906;DHT22;8051;50.820;4.884;2022-08-19T08:17:37;21.80;99.90
15906;DHT22;8051;50.820;4.884;2022-08-19T08:20:04;21.70;99.90
15906;DHT22;8051;50.820;4.884;2022-08-19T08:22:34;21.80;99.90
15906;DHT22;8051;50.820;4.884;2022-08-19T08:25:21;21.50;99.90
15906;DHT22;8051;50.820;4.884;2022-08-19T08:27:48;21.40;99.90
15906;DHT22;8051;50.820;4.884;2022-08-19T08:30:18;21.30;99.90
15906;DHT22;8051;50.820;4.884;2022-08-19T08:32:45;21.40;99.90
15906;DHT22;8051;50.820;4.884;2022-08-19T08:35:14;21.40;99.90
15906;DHT22;8051;50.820;4.884;2022-08-19T08:37:43;21.10;99.90
15906;DHT22;8051;50.820;4.884;2022-08-19T08:40:20;21.10;99.90
15906;DHT22;8051;50.820;4.884;2022-08-19T08:42:51;21.20;99.90
15906;DHT22;8051;50.820;4.884;2022-08-19T08:45:24;21.40;99.90
15906;DHT22;8051;50.820;4.884;2022-08-19T08:47:52;21.60;99.90
15906;DHT22;8051;50.820;4.884;2022-08-19T08:50:25;21.90;99.90
15906;DHT22;8051;50.820;4.884;2022-08-19T08:52:56;22.20;99.90
15906;DHT22;8051;50.820;4.884;2022-08-19T08:55:26;22.50;99.90
15906;DHT22;8051;50.820;4.884;2022-08-19T08:58:00;22.90;99.90
15906;DHT22;8051;50.820;4.884;2022-08-19T09:00:31;23.30;99.90
15906;DHT22;8051;50.820;4.884;2022-08-19T09:02:59;23.60;99.90
15906;DHT22;8051;50.820;4.884;2022-08-19T09:05:34;23.70;99.90
15906;DHT22;8051;50.820;4.884;2022-08-19T09:08:07;23.60;99.90
15906;DHT22;8051;50.820;4.884;2022-08-19T09:10:38;22.90;99.90
15906;DHT22;8051;50.820;4.884;2022-08-19T09:13:10;22.70;99.90
15906;DHT22;8051;50.820;4.884;2022-08-19T09:15:43;22.70;99.90
15906;DHT22;8051;50.820;4.884;2022-08-19T09:18:11;22.90;99.90
15906;DHT22;8051;50.820;4.884;2022-08-19T09:20:38;22.90;99.90
15906;DHT22;8051;50.820;4.884;2022-08-19T09:23:06;22.70;99.90
15906;DHT22;8051;50.820;4.884;2022-08-19T09:25:33;23.00;99.90
15906;DHT22;8051;50.820;4.884;2022-08-19T09:28:01;23.00;99.90
15906;DHT22;8051;50.820;4.884;2022-08-19T09:30:31;23.30;99.90
15906;DHT22;8051;50.820;4.884;2022-08-19T09:32:58;23.40;99.90
15906;DHT22;8051;50.820;4.884;2022-08-19T09:35:28;23.60;99.90
15906;DHT22;8051;50.820;4.884;2022-08-19T09:37:56;23.60;99.90
15906;DHT22;8051;50.820;4.884;2022-08-19T09:40:25;23.50;99.90
15906;DHT22;8051;50.820;4.884;2022-08-19T09:42:52;23.50;99.90
15906;DHT22;8051;50.820;4.884;2022-08-19T09:45:21;23.60;99.90
15906;DHT22;8051;50.820;4.884;2022-08-19T09:47:49;23.80;99.90
15906;DHT22;8051;50.820;4.884;2022-08-19T09:50:16;23.90;99.90
15906;DHT22;8051;50.820;4.884;2022-08-19T09:52:44;24.00;99.90
15906;DHT22;8051;50.820;4.884;2022-08-19T09:55:11;24.00;99.90
15906;DHT22;8051;50.820;4.884;2022-08-19T09:57:40;24.20;99.90
15906;DHT22;8051;50.820;4.884;2022-08-19T10:00:08;24.30;99.90
15906;DHT22;8051;50.820;4.884;2022-08-19T10:02:36;24.60;99.90
15906;DHT22;8051;50.820;4.884;2022-08-19T10:05:03;24.60;99.90
15906;DHT22;8051;50.820;4.884;2022-08-19T10:07:48;24.50;99.90
15906;DHT22;8051;50.820;4.884;2022-08-19T10:10:16;24.40;99.90
15906;DHT22;8051;50.820;4.884;2022-08-19T10:12:44;24.70;99.90
15906;DHT22;8051;50.820;4.884;2022-08-19T10:15:12;24.70;99.90
15906;DHT22;8051;50.820;4.884;2022-08-19T10:17:40;24.90;99.90
15906;DHT22;8051;50.820;4.884;2022-08-19T10:20:07;25.10;99.90
15906;DHT22;8051;50.820;4.884;2022-08-19T10:22:35;24.90;99.90
15906;DHT22;8051;50.820;4.884;2022-08-19T10:25:04;24.60;99.90
15906;DHT22;8051;50.820;4.884;2022-08-19T10:27:31;24.60;99.90
15906;DHT22;8051;50.820;4.884;2022-08-19T10:29:59;24.50;99.90
15906;DHT22;8051;50.820;4.884;2022-08-19T10:32:26;24.60;99.90
15906;DHT22;8051;50.820;4.884;2022-08-19T10:34:54;24.50;99.90
15906;DHT22;8051;50.820;4.884;2022-08-19T10:37:21;24.60;99.90
15906;DHT22;8051;50.820;4.884;2022-08-19T10:39:48;24.70;99.90
15906;DHT22;8051;50.820;4.884;2022-08-19T10:42:16;24.70;99.90
15906;DHT22;8051;50.820;4.884;2022-08-19T10:44:44;24.60;99.90
15906;DHT22;8051;50.820;4.884;2022-08-19T10:47:13;24.50;99.90
15906;DHT22;8051;50.820;4.884;2022-08-19T10:49:40;24.30;99.90
15906;DHT22;8051;50.820;4.884;2022-08-19T10:52:21;24.40;99.90
15906;DHT22;8051;50.820;4.884;2022-08-19T10:55:00;24.60;99.90
15906;DHT22;8051;50.820;4.884;2022-08-19T10:57:44;24.70;99.90
15906;DHT22;8051;50.820;4.884;2022-08-19T11:00:12;25.00;99.90
15906;DHT22;8051;50.820;4.884;2022-08-19T11:02:41;25.40;99.90
15906;DHT22;8051;50.820;4.884;2022-08-19T11:05:09;25.80;99.90
15906;DHT22;8051;50.820;4.884;2022-08-19T11:07:38;25.80;99.90
15906;DHT22;8051;50.820;4.884;2022-08-19T11:10:06;26.10;99.90
15906;DHT22;8051;50.820;4.884;2022-08-19T11:12:33;26.30;99.90
15906;DHT22;8051;50.820;4.884;2022-08-19T11:15:00;26.00;99.90
15906;DHT22;8051;50.820;4.884;2022-08-19T11:17:27;25.40;99.90
15906;DHT22;8051;50.820;4.884;2022-08-19T11:19:57;25.60;99.90
15906;DHT22;8051;50.820;4.884;2022-08-19T11:22:29;25.70;99.90
15906;DHT22;8051;50.820;4.884;2022-08-19T11:24:56;25.80;99.90
15906;DHT22;8051;50.820;4.884;2022-08-19T11:27:23;25.80;99.90
15906;DHT22;8051;50.820;4.884;2022-08-19T11:29:50;25.80;99.90
15906;DHT22;8051;50.820;4.884;2022-08-19T11:32:18;25.90;99.90
15906;DHT22;8051;50.820;4.884;2022-08-19T11:34:45;25.60;99.90
15906;DHT22;8051;50.820;4.884;2022-08-19T11:37:13;25.30;99.90
15906;DHT22;8051;50.820;4.884;2022-08-19T11:39:41;25.60;99.90
15906;DHT22;8051;50.820;4.884;2022-08-19T11:42:08;25.60;99.90
15906;DHT22;8051;50.820;4.884;2022-08-19T11:44:49;25.50;99.90
15906;DHT22;8051;50.820;4.884;2022-08-19T11:47:16;25.50;99.90
15906;DHT22;8051;50.820;4.884;2022-08-19T11:49:43;25.50;99.90
15906;DHT22;8051;50.820;4.884;2022-08-19T11:52:10;25.30;99.90
15906;DHT22;8051;50.820;4.884;2022-08-19T11:54:38;25.40;99.90
15906;DHT22;8051;50.820;4.884;2022-08-19T11:57:05;25.60;99.90
15906;DHT22;8051;50.820;4.884;2022-08-19T11:59:32;25.60;99.90
15906;DHT22;8051;50.820;4.884;2022-08-19T12:01:59;25.20;99.90
15906;DHT22;8051;50.820;4.884;2022-08-19T12:04:26;25.00;99.90
15906;DHT22;8051;50.820;4.884;2022-08-19T12:06:52;24.80;99.90
15906;DHT22;8051;50.820;4.884;2022-08-19T12:09:20;24.80;99.90
15906;DHT22;8051;50.820;4.884;2022-08-19T12:11:49;24.80;99.90
15906;DHT22;8051;50.820;4.884;2022-08-19T12:14:16;24.80;99.90
15906;DHT22;8051;50.820;4.884;2022-08-19T12:16:44;24.60;99.90
15906;DHT22;8051;50.820;4.884;2022-08-19T12:19:12;24.40;99.90
15906;DHT22;8051;50.820;4.884;2022-08-19T12:21:38;24.20;99.90
15906;DHT22;8051;50.820;4.884;2022-08-19T12:24:06;23.90;99.90
15906;DHT22;8051;50.820;4.884;2022-08-19T12:26:34;23.90;99.90
15906;DHT22;8051;50.820;4.884;2022-08-19T12:29:03;24.10;99.90
15906;DHT22;8051;50.820;4.884;2022-08-19T12:31:30;24.00;99.90
15906;DHT22;8051;50.820;4.884;2022-08-19T12:33:57;24.00;99.90
15906;DHT22;8051;50.820;4.884;2022-08-19T12:36:25;23.90;99.90
15906;DHT22;8051;50.820;4.884;2022-08-19T12:38:52;23.80;99.90
15906;DHT22;8051;50.820;4.884;2022-08-19T12:41:20;24.10;99.90
15906;DHT22;8051;50.820;4.884;2022-08-19T12:43:48;24.30;99.90
15906;DHT22;8051;50.820;4.884;2022-08-19T12:46:18;24.50;99.90
15906;DHT22;8051;50.820;4.884;2022-08-19T12:48:45;24.60;99.90
15906;DHT22;8051;50.820;4.884;2022-08-19T12:51:14;24.60;99.90
15906;DHT22;8051;50.820;4.884;2022-08-19T12:53:42;24.90;99.90
15906;DHT22;8051;50.820;4.884;2022-08-19T12:56:10;25.40;99.90
15906;DHT22;8051;50.820;4.884;2022-08-19T12:58:40;25.50;99.90
15906;DHT22;8051;50.820;4.884;2022-08-19T13:01:09;25.60;99.90
15906;DHT22;8051;50.820;4.884;2022-08-19T13:03:38;25.80;99.90
15906;DHT22;8051;50.820;4.884;2022-08-19T13:06:06;26.20;99.90
15906;DHT22;8051;50.820;4.884;2022-08-19T13:08:33;26.50;99.90
15906;DHT22;8051;50.820;4.884;2022-08-19T13:11:08;26.60;99.90
15906;DHT22;8051;50.820;4.884;2022-08-19T13:13:37;26.70;99.90
15906;DHT22;8051;50.820;4.884;2022-08-19T13:16:07;26.70;99.90
15906;DHT22;8051;50.820;4.884;2022-08-19T13:18:34;26.80;99.90
15906;DHT22;8051;50.820;4.884;2022-08-19T13:21:04;26.90;99.90
15906;DHT22;8051;50.820;4.884;2022-08-19T13:23:31;27.10;99.90
15906;DHT22;8051;50.820;4.884;2022-08-19T13:26:00;26.50;99.90
15906;DHT22;8051;50.820;4.884;2022-08-19T13:28:28;26.10;99.90
15906;DHT22;8051;50.820;4.884;2022-08-19T13:31:16;26.10;99.90
15906;DHT22;8051;50.820;4.884;2022-08-19T13:34:01;26.40;99.90
15906;DHT22;8051;50.820;4.884;2022-08-19T13:36:29;26.70;99.90
15906;DHT22;8051;50.820;4.884;2022-08-19T13:38:56;26.90;99.90
15906;DHT22;8051;50.820;4.884;2022-08-19T13:41:23;27.10;99.90
15906;DHT22;8051;50.820;4.884;2022-08-19T13:43:50;27.20;99.90
15906;DHT22;8051;50.820;4.884;2022-08-19T13:46:17;27.00;99.90
15906;DHT22;8051;50.820;4.884;2022-08-19T13:48:45;26.80;99.90
15906;DHT22;8051;50.820;4.884;2022-08-19T13:51:14;26.70;99.90
15906;DHT22;8051;50.820;4.884;2022-08-19T13:53:43;26.70;99.90
15906;DHT22;8051;50.820;4.884;2022-08-19T13:56:14;26.70;99.90
15906;DHT22;8051;50.820;4.884;2022-08-19T13:58:42;26.80;99.90
15906;DHT22;8051;50.820;4.884;2022-08-19T14:01:10;26.90;99.90
15906;DHT22;8051;50.820;4.884;2022-08-19T14:03:37;26.90;99.90
15906;DHT22;8051;50.820;4.884;2022-08-19T14:06:04;27.20;99.90
15906;DHT22;8051;50.820;4.884;2022-08-19T14:08:31;27.40;99.90
15906;DHT22;8051;50.820;4.884;2022-08-19T14:11:00;27.40;99.90
15906;DHT22;8051;50.820;4.884;2022-08-19T14:13:26;27.50;99.90
15906;DHT22;8051;50.820;4.884;2022-08-19T14:15:53;27.30;99.90
15906;DHT22;8051;50.820;4.884;2022-08-19T14:18:20;27.50;99.90
15906;DHT22;8051;50.820;4.884;2022-08-19T14:20:47;27.60;99.90
15906;DHT22;8051;50.820;4.884;2022-08-19T14:23:14;27.70;99.90
15906;DHT22;8051;50.820;4.884;2022-08-19T14:25:42;27.70;99.90
15906;DHT22;8051;50.820;4.884;2022-08-19T14:28:10;27.50;99.90
15906;DHT22;8051;50.820;4.884;2022-08-19T14:30:37;27.20;99.90
15906;DHT22;8051;50.820;4.884;2022-08-19T14:33:05;27.20;99.90
15906;DHT22;8051;50.820;4.884;2022-08-19T14:35:33;27.00;99.90
15906;DHT22;8051;50.820;4.884;2022-08-19T14:38:01;27.00;99.90
15906;DHT22;8051;50.820;4.884;2022-08-19T14:40:29;26.60;99.90
15906;DHT22;8051;50.820;4.884;2022-08-19T14:42:59;26.30;99.90
15906;DHT22;8051;50.820;4.884;2022-08-19T14:45:33;25.80;99.90
15906;DHT22;8051;50.820;4.884;2022-08-19T14:48:00;25.60;99.90
15906;DHT22;8051;50.820;4.884;2022-08-19T14:50:29;25.40;99.90
15906;DHT22;8051;50.820;4.884;2022-08-19T14:53:00;25.30;99.90
15906;DHT22;8051;50.820;4.884;2022-08-19T14:55:27;25.40;99.90
15906;DHT22;8051;50.820;4.884;2022-08-19T14:57:54;25.50;99.90
15906;DHT22;8051;50.820;4.884;2022-08-19T15:00:22;25.60;99.90
15906;DHT22;8051;50.820;4.884;2022-08-19T15:02:50;25.30;99.90
15906;DHT22;8051;50.820;4.884;2022-08-19T15:05:18;25.30;99.90
15906;DHT22;8051;50.820;4.884;2022-08-19T15:07:45;25.30;99.90
15906;DHT22;8051;50.820;4.884;2022-08-19T15:10:14;25.60;99.90
15906;DHT22;8051;50.820;4.884;2022-08-19T15:12:41;25.90;99.90
15906;DHT22;8051;50.820;4.884;2022-08-19T15:15:10;26.10;99.90
15906;DHT22;8051;50.820;4.884;2022-08-19T15:17:39;26.10;99.90
15906;DHT22;8051;50.820;4.884;2022-08-19T15:20:08;26.10;99.90
15906;DHT22;8051;50.820;4.884;2022-08-19T15:22:36;26.40;99.90
15906;DHT22;8051;50.820;4.884;2022-08-19T15:25:04;26.70;99.90
15906;DHT22;8051;50.820;4.884;2022-08-19T15:27:31;26.40;99.90
15906;DHT22;8051;50.820;4.884;2022-08-19T15:29:58;26.20;99.90
15906;DHT22;8051;50.820;4.884;2022-08-19T15:32:25;25.90;99.90
15906;DHT22;8051;50.820;4.884;2022-08-19T15:34:53;25.30;99.90
15906;DHT22;8051;50.820;4.884;2022-08-19T15:37:21;25.10;99.90
15906;DHT22;8051;50.820;4.884;2022-08-19T15:39:49;24.90;99.90
15906;DHT22;8051;50.820;4.884;2022-08-19T15:42:16;24.70;99.90
15906;DHT22;8051;50.820;4.884;2022-08-19T15:44:44;24.60;99.90
15906;DHT22;8051;50.820;4.884;2022-08-19T15:47:11;24.40;99.90
15906;DHT22;8051;50.820;4.884;2022-08-19T15:49:38;24.60;99.90
15906;DHT22;8051;50.820;4.884;2022-08-19T15:52:05;24.90;99.90
15906;DHT22;8051;50.820;4.884;2022-08-19T15:54:33;24.90;99.90